N512AC KSAN-KSMX
Flight info
| Callsign | N512AC |
|---|---|
| Flight time | 1h 10m |
| Altitude | 8000 |
| Route | PADRZ2 IYAKE RZS |
| Aircraft | BE58/L-SBGR/L |
Departure
| Time | 2026-04-21 22:01 |
|---|---|
| Airport | San Diego International Airport (KSAN) |
Arrival
| Time | 2026-04-21 23:12 |
|---|---|
| Airport | Santa Maria Public Airport Captain G Allan Hancock Field (KSMX) |
| Time | Latitude | Longitude | Altitude | Speed | Heading |
|---|---|---|---|---|---|
| 2026-04-21 21:46 | 32.73305 | -117.17696 | 18 ft | 0 kts | 137° |
| 2026-04-21 21:59 | 32.73298 | -117.17693 | 18 ft | 5 kts | 182° |
| 2026-04-21 21:59 | 32.73294 | -117.17774 | 18 ft | 17 kts | 275° |
| 2026-04-21 21:59 | 32.73310 | -117.17941 | 19 ft | 23 kts | 245° |
| 2026-04-21 22:00 | 32.73216 | -117.17914 | 16 ft | 17 kts | 106° |
| 2026-04-21 22:00 | 32.73170 | -117.17732 | 18 ft | 27 kts | 105° |
| 2026-04-21 22:00 | 32.73134 | -117.17587 | 16 ft | 6 kts | 128° |
| 2026-04-21 22:00 | 32.73034 | -117.17559 | 17 ft | 27 kts | 227° |
| 2026-04-21 22:01 | 32.73106 | -117.17961 | 22 ft | 98 kts | 284° |
| 2026-04-21 22:01 | 32.73326 | -117.18951 | 280 ft | 143 kts | 284° |
| 2026-04-21 22:01 | 32.73612 | -117.20123 | 739 ft | 153 kts | 288° |
| 2026-04-21 22:01 | 32.74061 | -117.21298 | 1099 ft | 169 kts | 295° |
| 2026-04-21 22:02 | 32.74643 | -117.22596 | 1169 ft | 183 kts | 296° |
| 2026-04-21 22:02 | 32.75258 | -117.23943 | 1294 ft | 187 kts | 298° |
| 2026-04-21 22:02 | 32.76000 | -117.25208 | 1474 ft | 186 kts | 306° |
| 2026-04-21 22:02 | 32.76805 | -117.26393 | 1706 ft | 184 kts | 307° |
| 2026-04-21 22:03 | 32.77635 | -117.27509 | 2060 ft | 176 kts | 309° |
| 2026-04-21 22:03 | 32.78427 | -117.28561 | 2414 ft | 172 kts | 308° |
| 2026-04-21 22:04 | 32.80558 | -117.31923 | 4114 ft | 142 kts | 298° |
| 2026-04-21 22:04 | 32.81006 | -117.32900 | 4717 ft | 140 kts | 294° |
| 2026-04-21 22:04 | 32.81519 | -117.33983 | 4897 ft | 155 kts | 299° |
| 2026-04-21 22:04 | 32.82132 | -117.35009 | 5352 ft | 149 kts | 304° |
| 2026-04-21 22:05 | 32.82787 | -117.35972 | 5645 ft | 157 kts | 305° |
| 2026-04-21 22:05 | 32.83487 | -117.37049 | 5629 ft | 172 kts | 301° |
| 2026-04-21 22:05 | 32.84167 | -117.38271 | 5597 ft | 179 kts | 300° |
| 2026-04-21 22:05 | 32.84899 | -117.39489 | 5612 ft | 181 kts | 303° |
| 2026-04-21 22:06 | 32.85668 | -117.40681 | 5607 ft | 181 kts | 304° |
| 2026-04-21 22:06 | 32.86426 | -117.41854 | 5707 ft | 176 kts | 303° |
| 2026-04-21 22:06 | 32.87166 | -117.43004 | 5826 ft | 175 kts | 303° |
| 2026-04-21 22:06 | 32.87905 | -117.44151 | 5948 ft | 174 kts | 303° |
| 2026-04-21 22:07 | 32.88632 | -117.45281 | 6070 ft | 173 kts | 303° |
| 2026-04-21 22:07 | 32.89364 | -117.46421 | 6191 ft | 173 kts | 303° |
| 2026-04-21 22:07 | 32.90100 | -117.47562 | 6317 ft | 173 kts | 303° |
| 2026-04-21 22:07 | 32.90833 | -117.48702 | 6444 ft | 172 kts | 303° |
| 2026-04-21 22:08 | 32.91559 | -117.49832 | 6564 ft | 172 kts | 303° |
| 2026-04-21 22:08 | 32.92275 | -117.50945 | 6678 ft | 171 kts | 303° |
| 2026-04-21 22:08 | 32.93006 | -117.52084 | 6801 ft | 170 kts | 303° |
| 2026-04-21 22:08 | 32.93718 | -117.53192 | 6916 ft | 170 kts | 302° |
| 2026-04-21 22:09 | 32.94436 | -117.54311 | 7032 ft | 169 kts | 302° |
| 2026-04-21 22:09 | 32.95151 | -117.55426 | 7151 ft | 168 kts | 302° |
| 2026-04-21 22:09 | 32.95861 | -117.56532 | 7269 ft | 167 kts | 302° |
| 2026-04-21 22:09 | 32.96565 | -117.57630 | 7392 ft | 166 kts | 301° |
| 2026-04-21 22:10 | 32.97030 | -117.58355 | 7472 ft | 166 kts | 301° |
| 2026-04-21 22:10 | 32.97955 | -117.59799 | 7627 ft | 165 kts | 301° |
| 2026-04-21 22:10 | 32.98648 | -117.60882 | 7744 ft | 164 kts | 301° |
| 2026-04-21 22:10 | 32.99337 | -117.61957 | 7864 ft | 163 kts | 301° |
| 2026-04-21 22:11 | 33.00023 | -117.63029 | 7956 ft | 164 kts | 301° |
| 2026-04-21 22:11 | 33.00486 | -117.63754 | 7955 ft | 167 kts | 301° |
| 2026-04-21 22:11 | 33.01199 | -117.64867 | 7959 ft | 170 kts | 301° |
| 2026-04-21 22:11 | 33.01920 | -117.65993 | 7967 ft | 171 kts | 301° |
| 2026-04-21 22:12 | 33.02642 | -117.67120 | 7966 ft | 171 kts | 301° |
| 2026-04-21 22:12 | 33.03363 | -117.68247 | 7969 ft | 170 kts | 301° |
| 2026-04-21 22:12 | 33.04081 | -117.69373 | 7965 ft | 170 kts | 301° |
| 2026-04-21 22:12 | 33.04801 | -117.70497 | 7960 ft | 170 kts | 301° |
| 2026-04-21 22:13 | 33.05509 | -117.71606 | 7972 ft | 170 kts | 301° |
| 2026-04-21 22:13 | 33.06232 | -117.72729 | 7963 ft | 171 kts | 303° |
| 2026-04-21 22:13 | 33.07121 | -117.73702 | 7966 ft | 175 kts | 314° |
| 2026-04-21 22:13 | 33.08052 | -117.74642 | 7966 ft | 175 kts | 312° |
| 2026-04-21 22:14 | 33.08963 | -117.75575 | 7966 ft | 175 kts | 313° |
| 2026-04-21 22:14 | 33.09891 | -117.76521 | 7962 ft | 176 kts | 313° |
| 2026-04-21 22:14 | 33.10826 | -117.77469 | 7967 ft | 176 kts | 313° |
| 2026-04-21 22:14 | 33.11761 | -117.78420 | 7961 ft | 176 kts | 313° |
| 2026-04-21 22:15 | 33.12690 | -117.79365 | 7964 ft | 175 kts | 313° |
| 2026-04-21 22:15 | 33.13619 | -117.80310 | 7961 ft | 175 kts | 313° |
| 2026-04-21 22:15 | 33.14545 | -117.81253 | 7959 ft | 175 kts | 313° |
| 2026-04-21 22:15 | 33.15472 | -117.82197 | 7959 ft | 175 kts | 313° |
| 2026-04-21 22:16 | 33.16399 | -117.83141 | 7957 ft | 175 kts | 313° |
| 2026-04-21 22:16 | 33.17314 | -117.84073 | 7962 ft | 175 kts | 313° |
| 2026-04-21 22:16 | 33.18244 | -117.85021 | 7961 ft | 175 kts | 313° |
| 2026-04-21 22:16 | 33.19171 | -117.85967 | 7961 ft | 175 kts | 313° |
| 2026-04-21 22:17 | 33.20045 | -117.86965 | 7959 ft | 173 kts | 308° |
| 2026-04-21 22:17 | 33.20897 | -117.87985 | 7958 ft | 173 kts | 308° |
| 2026-04-21 22:17 | 33.21752 | -117.89003 | 7959 ft | 173 kts | 308° |
| 2026-04-21 22:17 | 33.22607 | -117.90020 | 7958 ft | 174 kts | 308° |
| 2026-04-21 22:18 | 33.23459 | -117.91034 | 7960 ft | 174 kts | 308° |
| 2026-04-21 22:18 | 33.24311 | -117.92051 | 7959 ft | 174 kts | 308° |
| 2026-04-21 22:18 | 33.25178 | -117.93083 | 7959 ft | 174 kts | 308° |
| 2026-04-21 22:18 | 33.26023 | -117.94091 | 7960 ft | 174 kts | 309° |
| 2026-04-21 22:19 | 33.26887 | -117.95122 | 7960 ft | 174 kts | 308° |
| 2026-04-21 22:19 | 33.27737 | -117.96136 | 7964 ft | 174 kts | 308° |
| 2026-04-21 22:19 | 33.28594 | -117.97160 | 7961 ft | 175 kts | 308° |
| 2026-04-21 22:19 | 33.29453 | -117.98184 | 7963 ft | 175 kts | 308° |
| 2026-04-21 22:20 | 33.30319 | -117.99219 | 7963 ft | 175 kts | 308° |
| 2026-04-21 22:20 | 33.31177 | -118.00244 | 7965 ft | 175 kts | 308° |
| 2026-04-21 22:20 | 33.32033 | -118.01267 | 7969 ft | 175 kts | 308° |
| 2026-04-21 22:20 | 33.32890 | -118.02291 | 7969 ft | 175 kts | 308° |
| 2026-04-21 22:21 | 33.33748 | -118.03317 | 7971 ft | 175 kts | 308° |
| 2026-04-21 22:21 | 33.34612 | -118.04351 | 7974 ft | 175 kts | 308° |
| 2026-04-21 22:21 | 33.35475 | -118.05383 | 7973 ft | 175 kts | 308° |
| 2026-04-21 22:21 | 33.36338 | -118.06416 | 7974 ft | 175 kts | 308° |
| 2026-04-21 22:22 | 33.37200 | -118.07447 | 7975 ft | 175 kts | 308° |
| 2026-04-21 22:22 | 33.38064 | -118.08483 | 7975 ft | 178 kts | 308° |
| 2026-04-21 22:22 | 33.38954 | -118.09552 | 7980 ft | 183 kts | 309° |
| 2026-04-21 22:22 | 33.39849 | -118.10621 | 7978 ft | 185 kts | 309° |
| 2026-04-21 22:23 | 33.40765 | -118.11717 | 7980 ft | 187 kts | 309° |
| 2026-04-21 22:23 | 33.41684 | -118.12819 | 7980 ft | 187 kts | 309° |
| 2026-04-21 22:23 | 33.42603 | -118.13921 | 7982 ft | 187 kts | 309° |
| 2026-04-21 22:23 | 33.43523 | -118.15025 | 7987 ft | 188 kts | 309° |
| 2026-04-21 22:24 | 33.44450 | -118.16137 | 7985 ft | 189 kts | 309° |
| 2026-04-21 22:24 | 33.45383 | -118.17257 | 7986 ft | 190 kts | 309° |
| 2026-04-21 22:24 | 33.46304 | -118.18362 | 7986 ft | 189 kts | 309° |
| 2026-04-21 22:24 | 33.47232 | -118.19477 | 7987 ft | 189 kts | 309° |
| 2026-04-21 22:25 | 33.48162 | -118.20597 | 7986 ft | 190 kts | 309° |
| 2026-04-21 22:25 | 33.49097 | -118.21719 | 7985 ft | 190 kts | 309° |
| 2026-04-21 22:25 | 33.50029 | -118.22840 | 7986 ft | 190 kts | 309° |
| 2026-04-21 22:25 | 33.50960 | -118.23959 | 7986 ft | 189 kts | 309° |
| 2026-04-21 22:26 | 33.51880 | -118.25066 | 7986 ft | 190 kts | 309° |
| 2026-04-21 22:26 | 33.52812 | -118.26190 | 7985 ft | 190 kts | 309° |
| 2026-04-21 22:26 | 33.53744 | -118.27312 | 7989 ft | 190 kts | 309° |
| 2026-04-21 22:26 | 33.54683 | -118.28441 | 7987 ft | 190 kts | 309° |
| 2026-04-21 22:27 | 33.55613 | -118.29562 | 7985 ft | 189 kts | 309° |
| 2026-04-21 22:27 | 33.56542 | -118.30680 | 7986 ft | 189 kts | 309° |
| 2026-04-21 22:27 | 33.57454 | -118.31780 | 7985 ft | 188 kts | 309° |
| 2026-04-21 22:27 | 33.58378 | -118.32895 | 7981 ft | 188 kts | 309° |
| 2026-04-21 22:28 | 33.59302 | -118.34012 | 7983 ft | 189 kts | 309° |
| 2026-04-21 22:28 | 33.60231 | -118.35130 | 7972 ft | 189 kts | 309° |
| 2026-04-21 22:28 | 33.61160 | -118.36253 | 7970 ft | 189 kts | 309° |
| 2026-04-21 22:28 | 33.62086 | -118.37371 | 7973 ft | 189 kts | 309° |
| 2026-04-21 22:29 | 33.63015 | -118.38493 | 7973 ft | 190 kts | 309° |
| 2026-04-21 22:29 | 33.63947 | -118.39619 | 7975 ft | 190 kts | 309° |
| 2026-04-21 22:29 | 33.64880 | -118.40745 | 7972 ft | 190 kts | 309° |
| 2026-04-21 22:29 | 33.65808 | -118.41869 | 7976 ft | 190 kts | 309° |
| 2026-04-21 22:30 | 33.66749 | -118.43007 | 7981 ft | 193 kts | 309° |
| 2026-04-21 22:30 | 33.67686 | -118.44143 | 7977 ft | 194 kts | 310° |
| 2026-04-21 22:30 | 33.68637 | -118.45289 | 7970 ft | 193 kts | 310° |
| 2026-04-21 22:30 | 33.69577 | -118.46426 | 7974 ft | 191 kts | 309° |
| 2026-04-21 22:31 | 33.70509 | -118.47558 | 7967 ft | 191 kts | 310° |
| 2026-04-21 22:31 | 33.71444 | -118.48690 | 7970 ft | 191 kts | 309° |
| 2026-04-21 22:31 | 33.72382 | -118.49829 | 7976 ft | 193 kts | 310° |
| 2026-04-21 22:31 | 33.73330 | -118.50977 | 7973 ft | 194 kts | 310° |
| 2026-04-21 22:32 | 33.74277 | -118.52124 | 7972 ft | 192 kts | 309° |
| 2026-04-21 22:32 | 33.75215 | -118.53261 | 7967 ft | 191 kts | 309° |
| 2026-04-21 22:32 | 33.76152 | -118.54398 | 7965 ft | 191 kts | 310° |
| 2026-04-21 22:32 | 33.77085 | -118.55532 | 7966 ft | 190 kts | 309° |
| 2026-04-21 22:33 | 33.78019 | -118.56665 | 7968 ft | 191 kts | 309° |
| 2026-04-21 22:33 | 33.78944 | -118.57789 | 7991 ft | 190 kts | 309° |
| 2026-04-21 22:33 | 33.79880 | -118.58926 | 8007 ft | 191 kts | 309° |
| 2026-04-21 22:33 | 33.80815 | -118.60065 | 8007 ft | 192 kts | 309° |
| 2026-04-21 22:34 | 33.81753 | -118.61205 | 8012 ft | 192 kts | 309° |
| 2026-04-21 22:34 | 33.82692 | -118.62346 | 8012 ft | 192 kts | 309° |
| 2026-04-21 22:34 | 33.83633 | -118.63490 | 8004 ft | 192 kts | 309° |
| 2026-04-21 22:34 | 33.84560 | -118.64619 | 8007 ft | 192 kts | 310° |
| 2026-04-21 22:35 | 33.85501 | -118.65762 | 8010 ft | 191 kts | 309° |
| 2026-04-21 22:35 | 33.86434 | -118.66901 | 8005 ft | 191 kts | 309° |
| 2026-04-21 22:35 | 33.87371 | -118.68044 | 8004 ft | 192 kts | 310° |
| 2026-04-21 22:35 | 33.88312 | -118.69191 | 8004 ft | 193 kts | 309° |
| 2026-04-21 22:36 | 33.90220 | -118.71514 | 8016 ft | 197 kts | 310° |
| 2026-04-21 22:36 | 33.91170 | -118.72671 | 8017 ft | 196 kts | 309° |
| 2026-04-21 22:36 | 33.92132 | -118.73848 | 8013 ft | 197 kts | 310° |
| 2026-04-21 22:37 | 33.93097 | -118.75026 | 8011 ft | 197 kts | 310° |
| 2026-04-21 22:37 | 33.94056 | -118.76196 | 8009 ft | 195 kts | 309° |
| 2026-04-21 22:37 | 33.95008 | -118.77359 | 8011 ft | 194 kts | 309° |
| 2026-04-21 22:37 | 33.95956 | -118.78518 | 7999 ft | 194 kts | 310° |
| 2026-04-21 22:38 | 33.96903 | -118.79677 | 8001 ft | 194 kts | 310° |
| 2026-04-21 22:38 | 33.97851 | -118.80835 | 7999 ft | 194 kts | 310° |
| 2026-04-21 22:38 | 33.98798 | -118.81994 | 8000 ft | 193 kts | 310° |
| 2026-04-21 22:38 | 33.99730 | -118.83136 | 7996 ft | 193 kts | 310° |
| 2026-04-21 22:39 | 34.00677 | -118.84293 | 8002 ft | 193 kts | 310° |
| 2026-04-21 22:39 | 34.01622 | -118.85451 | 8001 ft | 194 kts | 310° |
| 2026-04-21 22:39 | 34.02569 | -118.86611 | 8007 ft | 194 kts | 310° |
| 2026-04-21 22:39 | 34.03517 | -118.87771 | 8002 ft | 194 kts | 310° |
| 2026-04-21 22:40 | 34.04462 | -118.88932 | 8006 ft | 194 kts | 310° |
| 2026-04-21 22:40 | 34.05415 | -118.90099 | 8014 ft | 195 kts | 310° |
| 2026-04-21 22:40 | 34.06357 | -118.91253 | 8012 ft | 195 kts | 310° |
| 2026-04-21 22:40 | 34.07310 | -118.92422 | 8008 ft | 194 kts | 310° |
| 2026-04-21 22:41 | 34.08257 | -118.93584 | 8018 ft | 194 kts | 310° |
| 2026-04-21 22:41 | 34.09204 | -118.94751 | 8013 ft | 195 kts | 310° |
| 2026-04-21 22:41 | 34.10157 | -118.95922 | 8010 ft | 195 kts | 310° |
| 2026-04-21 22:41 | 34.11109 | -118.97088 | 8022 ft | 196 kts | 310° |
| 2026-04-21 22:42 | 34.12061 | -118.98259 | 8014 ft | 194 kts | 310° |
| 2026-04-21 22:42 | 34.12995 | -118.99410 | 8022 ft | 194 kts | 310° |
| 2026-04-21 22:42 | 34.13947 | -119.00577 | 8023 ft | 195 kts | 310° |
| 2026-04-21 22:42 | 34.14732 | -119.01875 | 8018 ft | 190 kts | 294° |
| 2026-04-21 22:43 | 34.15388 | -119.03265 | 8002 ft | 191 kts | 296° |
| 2026-04-21 22:43 | 34.16068 | -119.04642 | 7999 ft | 191 kts | 296° |
| 2026-04-21 22:43 | 34.16745 | -119.06028 | 7998 ft | 190 kts | 296° |
| 2026-04-21 22:43 | 34.17416 | -119.07410 | 8003 ft | 191 kts | 296° |
| 2026-04-21 22:44 | 34.18079 | -119.08774 | 8002 ft | 191 kts | 296° |
| 2026-04-21 22:44 | 34.18753 | -119.10161 | 8001 ft | 191 kts | 296° |
| 2026-04-21 22:44 | 34.19428 | -119.11550 | 8003 ft | 191 kts | 296° |
| 2026-04-21 22:44 | 34.20102 | -119.12939 | 8010 ft | 191 kts | 296° |
| 2026-04-21 22:45 | 34.20774 | -119.14325 | 8004 ft | 191 kts | 296° |
| 2026-04-21 22:45 | 34.21448 | -119.15715 | 8005 ft | 191 kts | 296° |
| 2026-04-21 22:45 | 34.22115 | -119.17088 | 8001 ft | 192 kts | 296° |
| 2026-04-21 22:45 | 34.22789 | -119.18480 | 8005 ft | 191 kts | 296° |
| 2026-04-21 22:46 | 34.23463 | -119.19870 | 8007 ft | 191 kts | 296° |
| 2026-04-21 22:46 | 34.24134 | -119.21255 | 8002 ft | 191 kts | 296° |
| 2026-04-21 22:46 | 34.24806 | -119.22646 | 8006 ft | 191 kts | 296° |
| 2026-04-21 22:46 | 34.25480 | -119.24038 | 8000 ft | 192 kts | 296° |
| 2026-04-21 22:47 | 34.26147 | -119.25417 | 8009 ft | 192 kts | 296° |
| 2026-04-21 22:47 | 34.26823 | -119.26814 | 8000 ft | 192 kts | 296° |
| 2026-04-21 22:47 | 34.27499 | -119.28215 | 8000 ft | 193 kts | 296° |
| 2026-04-21 22:47 | 34.28177 | -119.29617 | 7998 ft | 193 kts | 297° |
| 2026-04-21 22:48 | 34.28858 | -119.31025 | 8003 ft | 193 kts | 296° |
| 2026-04-21 22:48 | 34.29535 | -119.32429 | 7998 ft | 193 kts | 296° |
| 2026-04-21 22:48 | 34.30204 | -119.33815 | 8001 ft | 193 kts | 296° |
| 2026-04-21 22:48 | 34.30885 | -119.35226 | 8004 ft | 194 kts | 297° |
| 2026-04-21 22:49 | 34.31568 | -119.36646 | 7997 ft | 194 kts | 297° |
| 2026-04-21 22:49 | 34.32249 | -119.38056 | 7995 ft | 193 kts | 297° |
| 2026-04-21 22:49 | 34.32919 | -119.39445 | 7996 ft | 194 kts | 297° |
| 2026-04-21 22:49 | 34.33596 | -119.40854 | 7994 ft | 194 kts | 297° |
| 2026-04-21 22:50 | 34.34276 | -119.42268 | 7997 ft | 194 kts | 297° |
| 2026-04-21 22:50 | 34.34954 | -119.43672 | 7990 ft | 193 kts | 297° |
| 2026-04-21 22:50 | 34.35630 | -119.45079 | 7983 ft | 193 kts | 297° |
| 2026-04-21 22:50 | 34.36304 | -119.46482 | 7990 ft | 193 kts | 296° |
| 2026-04-21 22:51 | 34.36979 | -119.47887 | 7986 ft | 193 kts | 297° |
| 2026-04-21 22:51 | 34.37646 | -119.49274 | 7987 ft | 193 kts | 297° |
| 2026-04-21 22:51 | 34.38319 | -119.50676 | 7992 ft | 193 kts | 296° |
| 2026-04-21 22:51 | 34.38993 | -119.52082 | 7988 ft | 193 kts | 296° |
| 2026-04-21 22:52 | 34.39671 | -119.53494 | 7998 ft | 193 kts | 296° |
| 2026-04-21 22:52 | 34.40347 | -119.54901 | 7997 ft | 194 kts | 296° |
| 2026-04-21 22:52 | 34.41016 | -119.56297 | 8001 ft | 194 kts | 297° |
| 2026-04-21 22:52 | 34.41696 | -119.57715 | 8001 ft | 194 kts | 296° |
| 2026-04-21 22:53 | 34.42374 | -119.59129 | 8006 ft | 194 kts | 296° |
| 2026-04-21 22:53 | 34.43051 | -119.60544 | 8002 ft | 194 kts | 296° |
| 2026-04-21 22:53 | 34.43730 | -119.61964 | 8004 ft | 194 kts | 296° |
| 2026-04-21 22:53 | 34.44410 | -119.63383 | 7999 ft | 194 kts | 296° |
| 2026-04-21 22:54 | 34.45080 | -119.64784 | 8006 ft | 194 kts | 296° |
| 2026-04-21 22:54 | 34.45758 | -119.66204 | 8011 ft | 195 kts | 296° |
| 2026-04-21 22:54 | 34.46439 | -119.67628 | 8009 ft | 196 kts | 296° |
| 2026-04-21 22:54 | 34.47122 | -119.69057 | 8010 ft | 196 kts | 296° |
| 2026-04-21 22:55 | 34.47807 | -119.70488 | 8011 ft | 196 kts | 296° |
| 2026-04-21 22:55 | 34.48489 | -119.71919 | 8004 ft | 195 kts | 296° |
| 2026-04-21 22:55 | 34.49172 | -119.73350 | 8005 ft | 196 kts | 296° |
| 2026-04-21 22:55 | 34.49846 | -119.74766 | 8003 ft | 196 kts | 296° |
| 2026-04-21 22:56 | 34.50529 | -119.76199 | 8013 ft | 195 kts | 296° |
| 2026-04-21 22:56 | 34.51244 | -119.77607 | 7999 ft | 196 kts | 301° |
| 2026-04-21 22:56 | 34.52027 | -119.78948 | 8013 ft | 195 kts | 301° |
| 2026-04-21 22:56 | 34.52801 | -119.80303 | 8008 ft | 195 kts | 300° |
| 2026-04-21 22:57 | 34.53558 | -119.81640 | 8005 ft | 194 kts | 300° |
| 2026-04-21 22:57 | 34.54331 | -119.82989 | 8002 ft | 194 kts | 300° |
| 2026-04-21 22:57 | 34.55103 | -119.84335 | 8008 ft | 195 kts | 301° |
| 2026-04-21 22:57 | 34.55622 | -119.85234 | 8010 ft | 196 kts | 300° |
| 2026-04-21 22:58 | 34.56406 | -119.86603 | 8016 ft | 197 kts | 300° |
| 2026-04-21 22:58 | 34.57187 | -119.87970 | 8020 ft | 197 kts | 300° |
| 2026-04-21 22:58 | 34.58224 | -119.89783 | 8010 ft | 198 kts | 300° |
| 2026-04-21 22:58 | 34.58754 | -119.90711 | 8008 ft | 198 kts | 300° |
| 2026-04-21 22:59 | 34.59539 | -119.92087 | 8009 ft | 198 kts | 300° |
| 2026-04-21 22:59 | 34.60318 | -119.93453 | 8015 ft | 201 kts | 300° |
| 2026-04-21 22:59 | 34.61127 | -119.94863 | 8016 ft | 204 kts | 300° |
| 2026-04-21 22:59 | 34.61935 | -119.96279 | 8008 ft | 205 kts | 300° |
| 2026-04-21 23:00 | 34.62749 | -119.97711 | 8006 ft | 206 kts | 300° |
| 2026-04-21 23:00 | 34.63559 | -119.99126 | 7997 ft | 203 kts | 300° |
| 2026-04-21 23:00 | 34.64363 | -120.00536 | 7995 ft | 202 kts | 299° |
| 2026-04-21 23:00 | 34.65166 | -120.01946 | 7994 ft | 202 kts | 300° |
| 2026-04-21 23:01 | 34.65962 | -120.03345 | 7994 ft | 200 kts | 300° |
| 2026-04-21 23:01 | 34.66747 | -120.04726 | 7993 ft | 201 kts | 300° |
| 2026-04-21 23:01 | 34.67604 | -120.06074 | 7999 ft | 203 kts | 310° |
| 2026-04-21 23:01 | 34.68661 | -120.07235 | 8003 ft | 205 kts | 315° |
| 2026-04-21 23:02 | 34.69725 | -120.08385 | 8001 ft | 205 kts | 313° |
| 2026-04-21 23:02 | 34.70767 | -120.09567 | 8010 ft | 205 kts | 312° |
| 2026-04-21 23:02 | 34.71803 | -120.10755 | 8000 ft | 205 kts | 312° |
| 2026-04-21 23:02 | 34.72845 | -120.11942 | 8006 ft | 205 kts | 312° |
| 2026-04-21 23:03 | 34.73887 | -120.13128 | 8005 ft | 205 kts | 312° |
| 2026-04-21 23:03 | 34.74933 | -120.14317 | 7997 ft | 206 kts | 312° |
| 2026-04-21 23:03 | 34.75984 | -120.15518 | 7936 ft | 209 kts | 312° |
| 2026-04-21 23:03 | 34.77013 | -120.16683 | 7757 ft | 196 kts | 312° |
| 2026-04-21 23:04 | 34.77984 | -120.17786 | 7561 ft | 186 kts | 311° |
| 2026-04-21 23:04 | 34.78916 | -120.18858 | 7385 ft | 183 kts | 311° |
| 2026-04-21 23:04 | 34.79840 | -120.19916 | 7205 ft | 181 kts | 311° |
| 2026-04-21 23:04 | 34.80755 | -120.20959 | 7032 ft | 179 kts | 311° |
| 2026-04-21 23:05 | 34.81663 | -120.21996 | 6859 ft | 179 kts | 311° |
| 2026-04-21 23:05 | 34.82569 | -120.23033 | 6699 ft | 179 kts | 312° |
| 2026-04-21 23:05 | 34.83481 | -120.24073 | 6536 ft | 179 kts | 311° |
| 2026-04-21 23:05 | 34.84380 | -120.25102 | 6360 ft | 179 kts | 311° |
| 2026-04-21 23:06 | 34.85297 | -120.26149 | 6122 ft | 182 kts | 311° |
| 2026-04-21 23:06 | 34.86229 | -120.27215 | 5836 ft | 186 kts | 311° |
| 2026-04-21 23:06 | 34.87191 | -120.28315 | 5423 ft | 192 kts | 312° |
| 2026-04-21 23:06 | 34.88174 | -120.29441 | 5011 ft | 195 kts | 312° |
| 2026-04-21 23:07 | 34.89168 | -120.30573 | 4593 ft | 196 kts | 313° |
| 2026-04-21 23:07 | 34.90152 | -120.31701 | 4175 ft | 197 kts | 312° |
| 2026-04-21 23:07 | 34.91139 | -120.32829 | 3997 ft | 187 kts | 312° |
| 2026-04-21 23:07 | 34.92090 | -120.33871 | 3910 ft | 182 kts | 315° |
| 2026-04-21 23:08 | 34.93072 | -120.34877 | 3632 ft | 187 kts | 312° |
| 2026-04-21 23:08 | 34.94007 | -120.35992 | 3379 ft | 187 kts | 310° |
| 2026-04-21 23:08 | 34.94933 | -120.37068 | 3209 ft | 179 kts | 313° |
| 2026-04-21 23:08 | 34.95718 | -120.38159 | 2721 ft | 167 kts | 295° |
| 2026-04-21 23:09 | 34.96127 | -120.39345 | 2387 ft | 140 kts | 274° |
| 2026-04-21 23:09 | 34.95960 | -120.40269 | 2312 ft | 103 kts | 220° |
| 2026-04-21 23:09 | 34.95306 | -120.40707 | 1963 ft | 113 kts | 214° |
| 2026-04-21 23:09 | 34.94809 | -120.41346 | 1799 ft | 85 kts | 227° |
| 2026-04-21 23:10 | 34.94454 | -120.41903 | 1806 ft | 83 kts | 225° |
| 2026-04-21 23:10 | 34.94034 | -120.42442 | 1680 ft | 91 kts | 219° |
| 2026-04-21 23:10 | 34.93556 | -120.42978 | 1540 ft | 94 kts | 219° |
| 2026-04-21 23:10 | 34.93045 | -120.43467 | 1361 ft | 96 kts | 218° |
| 2026-04-21 23:11 | 34.92485 | -120.43964 | 1097 ft | 101 kts | 217° |
| 2026-04-21 23:11 | 34.91919 | -120.44460 | 876 ft | 99 kts | 219° |
| 2026-04-21 23:11 | 34.91383 | -120.45000 | 669 ft | 104 kts | 218° |
| 2026-04-21 23:11 | 34.90805 | -120.45499 | 364 ft | 96 kts | 215° |
| 2026-04-21 23:12 | 34.90306 | -120.45942 | 231 ft | 74 kts | 217° |
| 2026-04-21 23:12 | 34.89994 | -120.46215 | 222 ft | 39 kts | 216° |
| 2026-04-21 23:12 | 34.89850 | -120.46388 | 220 ft | 17 kts | 295° |
| 2026-04-21 23:12 | 34.89906 | -120.46479 | 229 ft | 8 kts | 323° |
| 2026-04-21 23:13 | 34.89941 | -120.46480 | 232 ft | 6 kts | 21° |
| 2026-04-21 23:13 | 34.89966 | -120.46461 | 232 ft | 0 kts | 39° |